sensor_id;sensor_type;location;lat;lon;timestamp;pressure;altitude;pressure_sealevel;temperature;humidity
16016;BME280;8112;53.592;10.184;2023-11-21T00:01:58;100887.59;;;8.17;100.00
16016;BME280;8112;53.592;10.184;2023-11-21T00:07:00;100874.69;;;8.12;100.00
16016;BME280;8112;53.592;10.184;2023-11-21T00:12:04;100888.72;;;8.11;100.00
16016;BME280;8112;53.592;10.184;2023-11-21T00:17:06;100899.72;;;8.00;100.00
16016;BME280;8112;53.592;10.184;2023-11-21T00:22:08;100899.09;;;7.95;100.00
16016;BME280;8112;53.592;10.184;2023-11-21T00:27:11;100901.66;;;7.96;100.00
16016;BME280;8112;53.592;10.184;2023-11-21T00:32:12;100898.13;;;7.97;100.00
16016;BME280;8112;53.592;10.184;2023-11-21T00:37:14;100906.53;;;8.04;100.00
16016;BME280;8112;53.592;10.184;2023-11-21T00:42:17;100912.63;;;7.85;100.00
16016;BME280;8112;53.592;10.184;2023-11-21T00:47:19;100919.50;;;7.69;100.00
16016;BME280;8112;53.592;10.184;2023-11-21T00:52:21;100922.94;;;7.69;100.00
16016;BME280;8112;53.592;10.184;2023-11-21T00:57:24;100933.63;;;7.65;100.00
16016;BME280;8112;53.592;10.184;2023-11-21T01:02:25;100947.03;;;7.59;100.00
16016;BME280;8112;53.592;10.184;2023-11-21T01:07:27;100946.97;;;7.60;100.00
16016;BME280;8112;53.592;10.184;2023-11-21T01:12:31;100947.66;;;7.64;100.00
16016;BME280;8112;53.592;10.184;2023-11-21T01:17:32;100968.19;;;7.54;100.00
16016;BME280;8112;53.592;10.184;2023-11-21T01:22:35;100967.28;;;7.34;100.00
16016;BME280;8112;53.592;10.184;2023-11-21T01:27:38;100961.97;;;7.36;100.00
16016;BME280;8112;53.592;10.184;2023-11-21T01:32:39;100971.41;;;7.40;100.00
16016;BME280;8112;53.592;10.184;2023-11-21T01:37:41;100963.59;;;7.38;100.00
16016;BME280;8112;53.592;10.184;2023-11-21T01:42:44;100976.91;;;7.34;100.00
16016;BME280;8112;53.592;10.184;2023-11-21T01:47:47;100975.78;;;7.39;100.00
16016;BME280;8112;53.592;10.184;2023-11-21T01:52:49;100974.63;;;7.26;100.00
16016;BME280;8112;53.592;10.184;2023-11-21T01:57:53;100980.41;;;7.12;100.00
16016;BME280;8112;53.592;10.184;2023-11-21T02:02:55;100979.38;;;7.16;100.00
16016;BME280;8112;53.592;10.184;2023-11-21T02:08:00;100992.28;;;7.21;100.00
16016;BME280;8112;53.592;10.184;2023-11-21T02:13:04;100996.72;;;7.19;100.00
16016;BME280;8112;53.592;10.184;2023-11-21T02:18:06;100991.69;;;7.14;100.00
16016;BME280;8112;53.592;10.184;2023-11-21T02:23:11;100996.81;;;7.17;100.00
16016;BME280;8112;53.592;10.184;2023-11-21T02:28:13;101001.31;;;7.13;100.00
16016;BME280;8112;53.592;10.184;2023-11-21T02:33:16;101006.69;;;7.10;100.00
16016;BME280;8112;53.592;10.184;2023-11-21T02:38:22;101008.66;;;7.05;100.00
16016;BME280;8112;53.592;10.184;2023-11-21T02:43:24;101014.78;;;7.04;100.00
16016;BME280;8112;53.592;10.184;2023-11-21T02:48:25;101024.28;;;6.84;100.00
16016;BME280;8112;53.592;10.184;2023-11-21T02:53:31;101022.22;;;6.93;100.00
16016;BME280;8112;53.592;10.184;2023-11-21T02:58:33;101019.94;;;6.83;100.00
16016;BME280;8112;53.592;10.184;2023-11-21T03:03:35;101018.38;;;6.79;100.00
16016;BME280;8112;53.592;10.184;2023-11-21T03:08:42;101024.75;;;6.72;100.00
16016;BME280;8112;53.592;10.184;2023-11-21T03:13:43;101020.84;;;6.60;100.00
16016;BME280;8112;53.592;10.184;2023-11-21T03:18:46;101018.13;;;6.63;100.00
16016;BME280;8112;53.592;10.184;2023-11-21T03:23:49;101037.25;;;6.65;100.00
16016;BME280;8112;53.592;10.184;2023-11-21T03:28:51;101039.56;;;6.73;100.00
16016;BME280;8112;53.592;10.184;2023-11-21T03:33:54;101043.56;;;6.60;100.00
16016;BME280;8112;53.592;10.184;2023-11-21T03:38:57;101053.75;;;6.44;100.00
16016;BME280;8112;53.592;10.184;2023-11-21T03:43:58;101065.19;;;6.41;100.00
16016;BME280;8112;53.592;10.184;2023-11-21T03:49:00;101067.75;;;6.66;100.00
16016;BME280;8112;53.592;10.184;2023-11-21T03:54:04;101079.69;;;6.50;100.00
16016;BME280;8112;53.592;10.184;2023-11-21T03:59:05;101093.25;;;6.61;100.00
16016;BME280;8112;53.592;10.184;2023-11-21T04:04:07;101095.28;;;6.53;100.00
16016;BME280;8112;53.592;10.184;2023-11-21T04:09:10;101105.31;;;6.65;100.00
16016;BME280;8112;53.592;10.184;2023-11-21T04:14:13;101102.13;;;6.57;100.00
16016;BME280;8112;53.592;10.184;2023-11-21T04:19:17;101108.06;;;6.62;100.00
16016;BME280;8112;53.592;10.184;2023-11-21T04:24:20;101116.63;;;6.66;100.00
16016;BME280;8112;53.592;10.184;2023-11-21T04:29:22;101125.75;;;6.55;100.00
16016;BME280;8112;53.592;10.184;2023-11-21T04:34:24;101127.72;;;6.74;100.00
16016;BME280;8112;53.592;10.184;2023-11-21T04:39:27;101142.63;;;6.72;100.00
16016;BME280;8112;53.592;10.184;2023-11-21T04:44:28;101145.88;;;6.79;100.00
16016;BME280;8112;53.592;10.184;2023-11-21T04:49:30;101147.31;;;6.88;100.00
16016;BME280;8112;53.592;10.184;2023-11-21T04:54:33;101147.50;;;6.81;100.00
16016;BME280;8112;53.592;10.184;2023-11-21T04:59:35;101142.78;;;6.67;100.00
16016;BME280;8112;53.592;10.184;2023-11-21T05:04:37;101152.25;;;6.72;100.00
16016;BME280;8112;53.592;10.184;2023-11-21T05:09:42;101165.59;;;6.64;100.00
16016;BME280;8112;53.592;10.184;2023-11-21T05:14:46;101167.94;;;6.72;100.00
16016;BME280;8112;53.592;10.184;2023-11-21T05:19:49;101171.47;;;6.70;100.00
16016;BME280;8112;53.592;10.184;2023-11-21T05:24:52;101173.69;;;6.58;100.00
16016;BME280;8112;53.592;10.184;2023-11-21T05:29:53;101178.28;;;6.76;100.00
16016;BME280;8112;53.592;10.184;2023-11-21T05:34:55;101185.34;;;6.74;100.00
16016;BME280;8112;53.592;10.184;2023-11-21T05:39:58;101196.56;;;6.78;100.00
16016;BME280;8112;53.592;10.184;2023-11-21T05:45:05;101189.13;;;6.65;100.00
16016;BME280;8112;53.592;10.184;2023-11-21T05:50:10;101203.44;;;6.55;100.00
16016;BME280;8112;53.592;10.184;2023-11-21T05:55:16;101215.56;;;6.59;100.00
16016;BME280;8112;53.592;10.184;2023-11-21T06:00:18;101214.56;;;6.62;100.00
16016;BME280;8112;53.592;10.184;2023-11-21T06:05:22;101225.56;;;6.72;100.00
16016;BME280;8112;53.592;10.184;2023-11-21T06:10:26;101237.31;;;6.61;100.00
16016;BME280;8112;53.592;10.184;2023-11-21T06:15:28;101245.78;;;6.43;100.00
16016;BME280;8112;53.592;10.184;2023-11-21T06:20:30;101255.13;;;6.50;100.00
16016;BME280;8112;53.592;10.184;2023-11-21T06:25:33;101253.00;;;6.61;100.00
16016;BME280;8112;53.592;10.184;2023-11-21T06:30:37;101258.25;;;6.61;100.00
16016;BME280;8112;53.592;10.184;2023-11-21T06:35:38;101266.69;;;6.69;100.00
16016;BME280;8112;53.592;10.184;2023-11-21T06:40:41;101272.84;;;6.68;100.00
16016;BME280;8112;53.592;10.184;2023-11-21T06:45:43;101281.13;;;6.81;100.00
16016;BME280;8112;53.592;10.184;2023-11-21T06:50:45;101285.44;;;6.82;100.00
16016;BME280;8112;53.592;10.184;2023-11-21T06:55:48;101296.81;;;6.83;100.00
16016;BME280;8112;53.592;10.184;2023-11-21T07:00:50;101291.66;;;6.80;100.00
16016;BME280;8112;53.592;10.184;2023-11-21T07:05:53;101303.78;;;6.82;100.00
16016;BME280;8112;53.592;10.184;2023-11-21T07:10:56;101315.19;;;6.81;100.00
16016;BME280;8112;53.592;10.184;2023-11-21T07:15:57;101319.63;;;6.79;100.00
16016;BME280;8112;53.592;10.184;2023-11-21T07:20:59;101332.78;;;6.78;100.00
16016;BME280;8112;53.592;10.184;2023-11-21T07:26:02;101339.22;;;6.67;100.00
16016;BME280;8112;53.592;10.184;2023-11-21T07:31:09;101355.75;;;6.69;100.00
16016;BME280;8112;53.592;10.184;2023-11-21T07:36:10;101356.69;;;6.67;100.00
16016;BME280;8112;53.592;10.184;2023-11-21T07:41:13;101358.56;;;6.63;100.00
16016;BME280;8112;53.592;10.184;2023-11-21T07:46:16;101366.31;;;6.66;100.00
16016;BME280;8112;53.592;10.184;2023-11-21T07:51:18;101374.22;;;6.65;100.00
16016;BME280;8112;53.592;10.184;2023-11-21T07:56:21;101369.53;;;6.75;100.00
16016;BME280;8112;53.592;10.184;2023-11-21T08:01:23;101366.22;;;6.69;100.00
16016;BME280;8112;53.592;10.184;2023-11-21T08:06:25;101378.31;;;6.74;100.00
16016;BME280;8112;53.592;10.184;2023-11-21T08:11:28;101384.16;;;6.82;100.00
16016;BME280;8112;53.592;10.184;2023-11-21T08:16:32;101384.28;;;7.04;100.00
16016;BME280;8112;53.592;10.184;2023-11-21T08:21:33;101389.44;;;7.07;100.00
16016;BME280;8112;53.592;10.184;2023-11-21T08:26:39;101397.22;;;7.10;100.00
16016;BME280;8112;53.592;10.184;2023-11-21T08:31:41;101404.38;;;7.05;100.00
16016;BME280;8112;53.592;10.184;2023-11-21T08:36:42;101405.69;;;6.92;100.00
16016;BME280;8112;53.592;10.184;2023-11-21T08:41:45;101408.41;;;6.89;100.00
16016;BME280;8112;53.592;10.184;2023-11-21T08:46:47;101418.53;;;6.99;100.00
16016;BME280;8112;53.592;10.184;2023-11-21T08:51:49;101426.31;;;7.01;100.00
16016;BME280;8112;53.592;10.184;2023-11-21T08:56:53;101432.22;;;7.08;100.00
16016;BME280;8112;53.592;10.184;2023-11-21T09:01:55;101443.81;;;7.01;100.00
16016;BME280;8112;53.592;10.184;2023-11-21T09:06:56;101453.84;;;6.88;100.00
16016;BME280;8112;53.592;10.184;2023-11-21T09:12:02;101459.59;;;6.99;100.00
16016;BME280;8112;53.592;10.184;2023-11-21T09:17:03;101465.09;;;7.18;100.00
16016;BME280;8112;53.592;10.184;2023-11-21T09:22:11;101471.34;;;7.41;100.00
16016;BME280;8112;53.592;10.184;2023-11-21T09:27:14;101475.19;;;7.56;100.00
16016;BME280;8112;53.592;10.184;2023-11-21T09:32:15;101487.56;;;7.52;100.00
16016;BME280;8112;53.592;10.184;2023-11-21T09:37:19;101487.28;;;7.35;100.00
16016;BME280;8112;53.592;10.184;2023-11-21T09:42:27;101487.47;;;7.28;100.00
16016;BME280;8112;53.592;10.184;2023-11-21T09:47:32;101502.28;;;7.30;100.00
16016;BME280;8112;53.592;10.184;2023-11-21T09:52:42;101504.47;;;7.44;100.00
16016;BME280;8112;53.592;10.184;2023-11-21T09:57:49;101518.56;;;7.66;100.00
16016;BME280;8112;53.592;10.184;2023-11-21T10:02:52;101524.06;;;7.59;100.00
16016;BME280;8112;53.592;10.184;2023-11-21T10:07:55;101529.56;;;7.78;100.00
16016;BME280;8112;53.592;10.184;2023-11-21T10:13:02;101534.44;;;7.89;100.00
16016;BME280;8112;53.592;10.184;2023-11-21T10:18:06;101534.00;;;8.01;100.00
16016;BME280;8112;53.592;10.184;2023-11-21T10:23:10;101538.38;;;8.26;100.00
16016;BME280;8112;53.592;10.184;2023-11-21T10:28:14;101526.47;;;8.39;100.00
16016;BME280;8112;53.592;10.184;2023-11-21T10:33:16;101533.75;;;8.33;100.00
16016;BME280;8112;53.592;10.184;2023-11-21T10:38:18;101536.88;;;8.19;100.00
16016;BME280;8112;53.592;10.184;2023-11-21T10:43:24;101548.41;;;8.15;100.00
16016;BME280;8112;53.592;10.184;2023-11-21T10:48:26;101539.88;;;7.82;100.00
16016;BME280;8112;53.592;10.184;2023-11-21T10:53:28;101555.63;;;7.82;100.00
16016;BME280;8112;53.592;10.184;2023-11-21T10:58:32;101548.28;;;7.67;100.00
16016;BME280;8112;53.592;10.184;2023-11-21T11:03:36;101536.97;;;7.65;100.00
16016;BME280;8112;53.592;10.184;2023-11-21T11:08:38;101545.47;;;7.73;100.00
16016;BME280;8112;53.592;10.184;2023-11-21T11:13:44;101556.53;;;7.81;100.00
16016;BME280;8112;53.592;10.184;2023-11-21T11:18:47;101560.28;;;7.74;100.00
16016;BME280;8112;53.592;10.184;2023-11-21T11:24:01;101569.91;;;7.74;100.00
16016;BME280;8112;53.592;10.184;2023-11-21T11:29:17;101558.75;;;7.94;100.00
16016;BME280;8112;53.592;10.184;2023-11-21T11:34:24;101559.41;;;8.01;100.00
16016;BME280;8112;53.592;10.184;2023-11-21T11:39:28;101564.16;;;7.89;100.00
16016;BME280;8112;53.592;10.184;2023-11-21T11:44:49;101565.56;;;7.73;100.00
16016;BME280;8112;53.592;10.184;2023-11-21T11:50:01;101563.81;;;7.73;100.00
16016;BME280;8112;53.592;10.184;2023-11-21T11:55:08;101572.03;;;7.89;100.00
16016;BME280;8112;53.592;10.184;2023-11-21T12:00:16;101571.47;;;7.79;100.00
16016;BME280;8112;53.592;10.184;2023-11-21T12:05:21;101571.47;;;7.79;100.00
16016;BME280;8112;53.592;10.184;2023-11-21T12:10:24;101587.53;;;7.70;100.00
16016;BME280;8112;53.592;10.184;2023-11-21T12:15:28;101585.19;;;7.62;100.00
16016;BME280;8112;53.592;10.184;2023-11-21T12:20:31;101594.31;;;7.50;100.00
16016;BME280;8112;53.592;10.184;2023-11-21T12:25:38;101610.53;;;7.35;100.00
16016;BME280;8112;53.592;10.184;2023-11-21T12:30:43;101616.19;;;7.21;100.00
16016;BME280;8112;53.592;10.184;2023-11-21T12:35:45;101633.81;;;7.16;100.00
16016;BME280;8112;53.592;10.184;2023-11-21T12:40:47;101635.72;;;7.10;100.00
16016;BME280;8112;53.592;10.184;2023-11-21T12:45:50;101647.53;;;6.95;100.00
16016;BME280;8112;53.592;10.184;2023-11-21T12:50:53;101649.25;;;6.96;100.00
16016;BME280;8112;53.592;10.184;2023-11-21T12:55:56;101652.53;;;7.03;100.00
16016;BME280;8112;53.592;10.184;2023-11-21T13:01:00;101670.03;;;7.03;100.00
16016;BME280;8112;53.592;10.184;2023-11-21T13:06:04;101664.41;;;6.85;100.00
16016;BME280;8112;53.592;10.184;2023-11-21T13:11:07;101675.22;;;6.73;100.00
16016;BME280;8112;53.592;10.184;2023-11-21T13:16:11;101689.88;;;6.80;100.00
16016;BME280;8112;53.592;10.184;2023-11-21T13:21:13;101688.19;;;6.79;100.00
16016;BME280;8112;53.592;10.184;2023-11-21T13:26:16;101702.28;;;6.73;100.00
16016;BME280;8112;53.592;10.184;2023-11-21T13:31:22;101707.56;;;6.72;100.00
16016;BME280;8112;53.592;10.184;2023-11-21T13:36:27;101722.66;;;6.62;100.00
16016;BME280;8112;53.592;10.184;2023-11-21T13:41:33;101727.13;;;6.58;100.00
16016;BME280;8112;53.592;10.184;2023-11-21T13:46:36;101730.97;;;6.45;100.00
16016;BME280;8112;53.592;10.184;2023-11-21T13:51:38;101729.47;;;6.34;100.00
16016;BME280;8112;53.592;10.184;2023-11-21T13:56:46;101742.81;;;6.25;100.00
16016;BME280;8112;53.592;10.184;2023-11-21T14:01:49;101754.22;;;6.21;100.00
16016;BME280;8112;53.592;10.184;2023-11-21T14:06:59;101754.22;;;6.21;100.00
16016;BME280;8112;53.592;10.184;2023-11-21T14:12:20;101759.47;;;6.21;100.00
16016;BME280;8112;53.592;10.184;2023-11-21T14:17:23;101778.06;;;6.10;100.00
16016;BME280;8112;53.592;10.184;2023-11-21T14:22:25;101784.22;;;6.07;100.00
16016;BME280;8112;53.592;10.184;2023-11-21T14:27:27;101788.13;;;5.88;100.00
16016;BME280;8112;53.592;10.184;2023-11-21T14:32:30;101787.41;;;5.81;100.00
16016;BME280;8112;53.592;10.184;2023-11-21T14:37:32;101795.41;;;5.73;100.00
16016;BME280;8112;53.592;10.184;2023-11-21T14:42:34;101796.38;;;5.69;100.00
16016;BME280;8112;53.592;10.184;2023-11-21T14:47:39;101803.94;;;5.81;100.00
16016;BME280;8112;53.592;10.184;2023-11-21T14:52:44;101811.53;;;5.94;100.00
16016;BME280;8112;53.592;10.184;2023-11-21T14:57:56;101840.56;;;5.83;100.00
16016;BME280;8112;53.592;10.184;2023-11-21T15:03:00;101851.25;;;5.72;100.00
16016;BME280;8112;53.592;10.184;2023-11-21T15:08:01;101855.41;;;5.37;100.00
16016;BME280;8112;53.592;10.184;2023-11-21T15:13:19;101867.19;;;5.11;100.00
16016;BME280;8112;53.592;10.184;2023-11-21T15:18:23;101868.09;;;5.10;100.00
16016;BME280;8112;53.592;10.184;2023-11-21T15:23:26;101878.59;;;5.07;100.00
16016;BME280;8112;53.592;10.184;2023-11-21T15:28:28;101877.00;;;4.99;100.00
16016;BME280;8112;53.592;10.184;2023-11-21T15:33:31;101894.50;;;4.94;100.00
16016;BME280;8112;53.592;10.184;2023-11-21T15:38:33;101902.44;;;4.88;100.00
16016;BME280;8112;53.592;10.184;2023-11-21T15:43:34;101911.94;;;4.92;100.00
16016;BME280;8112;53.592;10.184;2023-11-21T15:48:38;101916.25;;;4.95;100.00
16016;BME280;8112;53.592;10.184;2023-11-21T15:53:44;101937.16;;;4.93;100.00
16016;BME280;8112;53.592;10.184;2023-11-21T15:58:45;101937.97;;;4.98;100.00
16016;BME280;8112;53.592;10.184;2023-11-21T16:03:48;101948.59;;;4.88;100.00
16016;BME280;8112;53.592;10.184;2023-11-21T16:08:51;101962.78;;;4.69;100.00
16016;BME280;8112;53.592;10.184;2023-11-21T16:13:52;101970.66;;;4.68;100.00
16016;BME280;8112;53.592;10.184;2023-11-21T16:18:55;101993.22;;;4.72;100.00
16016;BME280;8112;53.592;10.184;2023-11-21T16:23:57;101996.72;;;4.71;100.00
16016;BME280;8112;53.592;10.184;2023-11-21T16:28:59;101998.25;;;4.84;100.00
16016;BME280;8112;53.592;10.184;2023-11-21T16:34:11;102017.25;;;4.97;100.00
16016;BME280;8112;53.592;10.184;2023-11-21T16:39:13;102018.91;;;5.02;100.00
16016;BME280;8112;53.592;10.184;2023-11-21T16:44:16;102045.88;;;5.04;100.00
16016;BME280;8112;53.592;10.184;2023-11-21T16:49:19;102056.22;;;5.11;100.00
16016;BME280;8112;53.592;10.184;2023-11-21T16:54:21;102073.72;;;5.06;100.00
16016;BME280;8112;53.592;10.184;2023-11-21T16:59:23;102075.72;;;4.87;100.00
16016;BME280;8112;53.592;10.184;2023-11-21T17:04:26;102071.56;;;4.70;100.00
16016;BME280;8112;53.592;10.184;2023-11-21T17:09:27;102070.91;;;4.53;100.00
16016;BME280;8112;53.592;10.184;2023-11-21T17:14:29;102074.59;;;4.36;100.00
16016;BME280;8112;53.592;10.184;2023-11-21T17:19:32;102083.34;;;4.32;100.00
16016;BME280;8112;53.592;10.184;2023-11-21T17:24:35;102092.06;;;4.31;100.00
16016;BME280;8112;53.592;10.184;2023-11-21T17:29:36;102097.28;;;4.31;100.00
16016;BME280;8112;53.592;10.184;2023-11-21T17:34:40;102105.97;;;4.33;100.00
16016;BME280;8112;53.592;10.184;2023-11-21T17:39:41;102123.28;;;4.40;100.00
16016;BME280;8112;53.592;10.184;2023-11-21T17:44:43;102122.41;;;4.38;100.00
16016;BME280;8112;53.592;10.184;2023-11-21T17:49:46;102134.47;;;4.52;100.00
16016;BME280;8112;53.592;10.184;2023-11-21T17:54:49;102144.09;;;4.47;100.00
16016;BME280;8112;53.592;10.184;2023-11-21T17:59:51;102148.47;;;4.43;100.00
16016;BME280;8112;53.592;10.184;2023-11-21T18:04:55;102164.91;;;4.53;100.00
16016;BME280;8112;53.592;10.184;2023-11-21T18:09:57;102175.63;;;4.28;100.00
16016;BME280;8112;53.592;10.184;2023-11-21T18:14:58;102181.00;;;4.09;100.00
16016;BME280;8112;53.592;10.184;2023-11-21T18:20:02;102182.78;;;4.01;100.00
16016;BME280;8112;53.592;10.184;2023-11-21T18:25:04;102190.63;;;4.01;100.00
16016;BME280;8112;53.592;10.184;2023-11-21T18:30:08;102198.38;;;4.10;100.00
16016;BME280;8112;53.592;10.184;2023-11-21T18:35:12;102207.00;;;4.20;100.00
16016;BME280;8112;53.592;10.184;2023-11-21T18:40:14;102197.44;;;4.19;100.00
16016;BME280;8112;53.592;10.184;2023-11-21T18:45:16;102204.44;;;4.12;100.00
16016;BME280;8112;53.592;10.184;2023-11-21T18:50:20;102215.72;;;4.14;100.00
16016;BME280;8112;53.592;10.184;2023-11-21T18:55:23;102218.34;;;4.14;100.00
16016;BME280;8112;53.592;10.184;2023-11-21T19:00:25;102220.91;;;4.22;100.00
16016;BME280;8112;53.592;10.184;2023-11-21T19:05:28;102229.63;;;4.18;100.00
16016;BME280;8112;53.592;10.184;2023-11-21T19:10:30;102247.00;;;4.18;100.00
16016;BME280;8112;53.592;10.184;2023-11-21T19:15:32;102254.84;;;4.18;100.00
16016;BME280;8112;53.592;10.184;2023-11-21T19:20:36;102261.81;;;4.16;100.00
16016;BME280;8112;53.592;10.184;2023-11-21T19:25:38;102264.47;;;4.12;100.00
16016;BME280;8112;53.592;10.184;2023-11-21T19:30:39;102276.69;;;4.06;100.00
16016;BME280;8112;53.592;10.184;2023-11-21T19:35:43;102290.72;;;3.88;100.00
16016;BME280;8112;53.592;10.184;2023-11-21T19:40:45;102302.94;;;3.76;100.00
16016;BME280;8112;53.592;10.184;2023-11-21T19:45:47;102310.75;;;3.76;100.00
16016;BME280;8112;53.592;10.184;2023-11-21T19:50:50;102319.41;;;3.88;100.00
16016;BME280;8112;53.592;10.184;2023-11-21T19:55:53;102325.50;;;3.87;100.00
16016;BME280;8112;53.592;10.184;2023-11-21T20:00:55;102315.88;;;3.93;100.00
16016;BME280;8112;53.592;10.184;2023-11-21T20:05:59;102326.28;;;3.98;100.00
16016;BME280;8112;53.592;10.184;2023-11-21T20:11:02;102329.75;;;4.05;100.00
16016;BME280;8112;53.592;10.184;2023-11-21T20:16:04;102336.72;;;4.04;100.00
16016;BME280;8112;53.592;10.184;2023-11-21T20:21:07;102351.53;;;3.93;100.00
16016;BME280;8112;53.592;10.184;2023-11-21T20:26:09;102354.22;;;3.82;100.00
16016;BME280;8112;53.592;10.184;2023-11-21T20:31:11;102360.34;;;3.73;100.00
16016;BME280;8112;53.592;10.184;2023-11-21T20:36:14;102355.97;;;3.74;100.00
16016;BME280;8112;53.592;10.184;2023-11-21T20:41:16;102362.97;;;3.70;100.00
16016;BME280;8112;53.592;10.184;2023-11-21T20:46:18;102360.34;;;3.73;100.00
16016;BME280;8112;53.592;10.184;2023-11-21T20:51:21;102377.72;;;3.71;100.00
16016;BME280;8112;53.592;10.184;2023-11-21T20:56:23;102382.94;;;3.74;100.00
16016;BME280;8112;53.592;10.184;2023-11-21T21:01:24;102384.66;;;3.75;100.00
16016;BME280;8112;53.592;10.184;2023-11-21T21:06:27;102390.75;;;3.76;100.00
16016;BME280;8112;53.592;10.184;2023-11-21T21:11:29;102402.88;;;3.91;100.00
16016;BME280;8112;53.592;10.184;2023-11-21T21:16:32;102401.97;;;3.90;100.00
16016;BME280;8112;53.592;10.184;2023-11-21T21:21:35;102419.38;;;3.91;100.00
16016;BME280;8112;53.592;10.184;2023-11-21T21:26:37;102415.91;;;3.81;100.00
16016;BME280;8112;53.592;10.184;2023-11-21T21:31:39;102417.69;;;3.73;100.00
16016;BME280;8112;53.592;10.184;2023-11-21T21:36:42;102422.94;;;3.61;100.00
16016;BME280;8112;53.592;10.184;2023-11-21T21:41:44;102420.38;;;3.54;100.00
16016;BME280;8112;53.592;10.184;2023-11-21T21:46:46;102420.34;;;3.61;100.00
16016;BME280;8112;53.592;10.184;2023-11-21T21:51:49;102420.34;;;3.56;100.00
16016;BME280;8112;53.592;10.184;2023-11-21T21:56:51;102422.97;;;3.50;100.00
16016;BME280;8112;53.592;10.184;2023-11-21T22:01:52;102423.84;;;3.50;100.00
16016;BME280;8112;53.592;10.184;2023-11-21T22:06:55;102429.06;;;3.53;100.00
16016;BME280;8112;53.592;10.184;2023-11-21T22:11:57;102442.09;;;3.50;100.00
16016;BME280;8112;53.592;10.184;2023-11-21T22:16:59;102430.81;;;3.51;100.00
16016;BME280;8112;53.592;10.184;2023-11-21T22:22:02;102453.41;;;3.40;100.00
16016;BME280;8112;53.592;10.184;2023-11-21T22:27:04;102461.22;;;3.20;100.00
16016;BME280;8112;53.592;10.184;2023-11-21T22:32:09;102462.97;;;3.04;100.00
16016;BME280;8112;53.592;10.184;2023-11-21T22:37:12;102472.53;;;3.02;100.00
16016;BME280;8112;53.592;10.184;2023-11-21T22:42:15;102489.84;;;2.90;100.00
16016;BME280;8112;53.592;10.184;2023-11-21T22:47:16;102478.56;;;2.77;100.00
16016;BME280;8112;53.592;10.184;2023-11-21T22:52:23;102478.53;;;2.65;100.00
16016;BME280;8112;53.592;10.184;2023-11-21T22:57:25;102486.31;;;2.48;100.00
16016;BME280;8112;53.592;10.184;2023-11-21T23:02:26;102513.19;;;2.44;100.00
16016;BME280;8112;53.592;10.184;2023-11-21T23:07:29;102515.69;;;2.26;100.00
16016;BME280;8112;53.592;10.184;2023-11-21T23:12:31;102507.91;;;2.25;100.00
16016;BME280;8112;53.592;10.184;2023-11-21T23:17:34;102513.13;;;2.25;100.00
16016;BME280;8112;53.592;10.184;2023-11-21T23:22:37;102520.88;;;2.19;100.00
16016;BME280;8112;53.592;10.184;2023-11-21T23:27:40;102508.72;;;2.13;100.00
16016;BME280;8112;53.592;10.184;2023-11-21T23:32:41;102524.22;;;1.93;100.00
16016;BME280;8112;53.592;10.184;2023-11-21T23:37:46;102529.38;;;1.87;100.00
16016;BME280;8112;53.592;10.184;2023-11-21T23:42:47;102534.56;;;1.87;100.00
16016;BME280;8112;53.592;10.184;2023-11-21T23:47:51;102530.25;;;1.90;100.00
16016;BME280;8112;53.592;10.184;2023-11-21T23:52:54;102518.22;;;2.06;100.00
16016;BME280;8112;53.592;10.184;2023-11-21T23:57:55;102530.34;;;2.04;100.00
